sensor_id;sensor_type;location;lat;lon;timestamp;temperature;humidity
76203;DHT22;64985;46.364;17.008;2024-03-23T00:53:18;11.30;99.90
76203;DHT22;64985;46.364;17.008;2024-03-23T00:56:19;11.30;99.90
76203;DHT22;64985;46.364;17.008;2024-03-23T00:59:21;11.30;99.90
76203;DHT22;64985;46.364;17.008;2024-03-23T01:02:23;11.20;99.90
76203;DHT22;64985;46.364;17.008;2024-03-23T01:05:25;11.20;99.90
76203;DHT22;64985;46.364;17.008;2024-03-23T01:08:26;11.10;99.90
76203;DHT22;64985;46.364;17.008;2024-03-23T01:11:27;11.00;99.90
76203;DHT22;64985;46.364;17.008;2024-03-23T01:14:29;10.80;99.90
76203;DHT22;64985;46.364;17.008;2024-03-23T01:17:30;10.60;99.90
76203;DHT22;64985;46.364;17.008;2024-03-23T01:20:31;10.50;99.90
76203;DHT22;64985;46.364;17.008;2024-03-23T01:23:32;10.50;99.90
76203;DHT22;64985;46.364;17.008;2024-03-23T01:26:34;10.70;99.90
76203;DHT22;64985;46.364;17.008;2024-03-23T01:29:35;10.70;99.90
76203;DHT22;64985;46.364;17.008;2024-03-23T01:32:36;10.80;99.90
76203;DHT22;64985;46.364;17.008;2024-03-23T01:35:38;10.80;99.90
76203;DHT22;64985;46.364;17.008;2024-03-23T01:38:39;10.70;99.90
76203;DHT22;64985;46.364;17.008;2024-03-23T01:41:40;10.60;99.90
76203;DHT22;64985;46.364;17.008;2024-03-23T01:44:44;10.70;99.90
76203;DHT22;64985;46.364;17.008;2024-03-23T01:47:45;10.60;99.90
76203;DHT22;64985;46.364;17.008;2024-03-23T01:50:46;10.60;99.90
76203;DHT22;64985;46.364;17.008;2024-03-23T01:53:49;10.70;99.90
76203;DHT22;64985;46.364;17.008;2024-03-23T01:56:50;10.70;99.90
76203;DHT22;64985;46.364;17.008;2024-03-23T01:59:51;10.60;99.90
76203;DHT22;64985;46.364;17.008;2024-03-23T02:02:54;10.70;99.90
76203;DHT22;64985;46.364;17.008;2024-03-23T02:05:56;10.60;99.90
76203;DHT22;64985;46.364;17.008;2024-03-23T02:08:58;10.40;99.90
76203;DHT22;64985;46.364;17.008;2024-03-23T02:12:02;10.30;99.90
76203;DHT22;64985;46.364;17.008;2024-03-23T02:15:04;10.30;99.90
76203;DHT22;64985;46.364;17.008;2024-03-23T02:18:07;10.30;99.90
76203;DHT22;64985;46.364;17.008;2024-03-23T02:21:09;10.20;99.90
76203;DHT22;64985;46.364;17.008;2024-03-23T02:24:10;10.10;99.90
76203;DHT22;64985;46.364;17.008;2024-03-23T02:27:11;10.00;99.90
76203;DHT22;64985;46.364;17.008;2024-03-23T02:30:12;10.10;99.90
76203;DHT22;64985;46.364;17.008;2024-03-23T02:33:14;10.10;99.90
76203;DHT22;64985;46.364;17.008;2024-03-23T02:36:15;10.10;99.90
76203;DHT22;64985;46.364;17.008;2024-03-23T02:39:16;10.00;99.90
76203;DHT22;64985;46.364;17.008;2024-03-23T02:42:17;10.00;99.90
76203;DHT22;64985;46.364;17.008;2024-03-23T02:45:19;9.90;99.90
76203;DHT22;64985;46.364;17.008;2024-03-23T02:48:20;9.80;99.90
76203;DHT22;64985;46.364;17.008;2024-03-23T02:51:21;9.70;99.90
76203;DHT22;64985;46.364;17.008;2024-03-23T02:54:22;9.70;99.90
76203;DHT22;64985;46.364;17.008;2024-03-23T02:57:24;9.70;99.90
76203;DHT22;64985;46.364;17.008;2024-03-23T03:00:25;9.70;99.90
76203;DHT22;64985;46.364;17.008;2024-03-23T03:03:27;9.70;99.90
76203;DHT22;64985;46.364;17.008;2024-03-23T03:06:30;9.80;99.90
76203;DHT22;64985;46.364;17.008;2024-03-23T03:09:31;9.90;99.90
76203;DHT22;64985;46.364;17.008;2024-03-23T03:12:34;10.10;99.90
76203;DHT22;64985;46.364;17.008;2024-03-23T03:15:35;10.10;99.90
76203;DHT22;64985;46.364;17.008;2024-03-23T03:18:36;10.10;99.90
76203;DHT22;64985;46.364;17.008;2024-03-23T03:21:37;10.10;99.90
76203;DHT22;64985;46.364;17.008;2024-03-23T03:24:38;10.10;99.90
76203;DHT22;64985;46.364;17.008;2024-03-23T03:27:40;10.00;99.90
76203;DHT22;64985;46.364;17.008;2024-03-23T03:30:41;10.00;99.90
76203;DHT22;64985;46.364;17.008;2024-03-23T03:33:42;10.00;99.90
76203;DHT22;64985;46.364;17.008;2024-03-23T03:36:44;9.80;99.90
76203;DHT22;64985;46.364;17.008;2024-03-23T03:39:45;9.70;99.90
76203;DHT22;64985;46.364;17.008;2024-03-23T03:42:47;9.50;99.90
76203;DHT22;64985;46.364;17.008;2024-03-23T03:45:53;9.40;99.90
76203;DHT22;64985;46.364;17.008;2024-03-23T03:48:55;9.30;99.90
76203;DHT22;64985;46.364;17.008;2024-03-23T03:51:56;9.20;99.90
76203;DHT22;64985;46.364;17.008;2024-03-23T03:55:02;9.20;99.90
76203;DHT22;64985;46.364;17.008;2024-03-23T03:58:04;9.20;99.90
76203;DHT22;64985;46.364;17.008;2024-03-23T04:01:05;9.20;99.90
76203;DHT22;64985;46.364;17.008;2024-03-23T04:04:07;9.20;99.90
76203;DHT22;64985;46.364;17.008;2024-03-23T04:07:08;9.10;99.90
76203;DHT22;64985;46.364;17.008;2024-03-23T04:10:09;9.10;99.90
76203;DHT22;64985;46.364;17.008;2024-03-23T04:13:10;9.10;99.90
76203;DHT22;64985;46.364;17.008;2024-03-23T04:16:12;9.10;99.90
76203;DHT22;64985;46.364;17.008;2024-03-23T04:19:13;9.00;99.90
76203;DHT22;64985;46.364;17.008;2024-03-23T04:22:15;9.00;99.90
76203;DHT22;64985;46.364;17.008;2024-03-23T04:25:16;9.00;99.90
76203;DHT22;64985;46.364;17.008;2024-03-23T04:28:20;8.90;99.90
76203;DHT22;64985;46.364;17.008;2024-03-23T04:31:22;8.90;99.90
76203;DHT22;64985;46.364;17.008;2024-03-23T04:34:23;8.90;99.90
76203;DHT22;64985;46.364;17.008;2024-03-23T04:37:24;9.00;99.90
76203;DHT22;64985;46.364;17.008;2024-03-23T04:40:26;9.10;99.90
76203;DHT22;64985;46.364;17.008;2024-03-23T04:43:27;9.10;99.90
76203;DHT22;64985;46.364;17.008;2024-03-23T04:46:29;9.10;99.90
76203;DHT22;64985;46.364;17.008;2024-03-23T04:49:30;9.10;99.90
76203;DHT22;64985;46.364;17.008;2024-03-23T04:52:32;9.10;99.90
76203;DHT22;64985;46.364;17.008;2024-03-23T04:55:33;9.10;99.90
76203;DHT22;64985;46.364;17.008;2024-03-23T04:58:34;9.00;99.90
76203;DHT22;64985;46.364;17.008;2024-03-23T05:01:35;8.90;99.90
76203;DHT22;64985;46.364;17.008;2024-03-23T05:04:39;8.90;99.90
76203;DHT22;64985;46.364;17.008;2024-03-23T05:07:43;8.90;99.90
76203;DHT22;64985;46.364;17.008;2024-03-23T05:10:45;8.90;99.90
76203;DHT22;64985;46.364;17.008;2024-03-23T05:13:47;8.90;99.90
76203;DHT22;64985;46.364;17.008;2024-03-23T05:16:48;8.80;99.90
76203;DHT22;64985;46.364;17.008;2024-03-23T05:19:49;8.70;99.90
76203;DHT22;64985;46.364;17.008;2024-03-23T05:22:51;8.60;99.90
76203;DHT22;64985;46.364;17.008;2024-03-23T05:25:52;8.50;99.90
76203;DHT22;64985;46.364;17.008;2024-03-23T05:28:54;8.60;99.90
76203;DHT22;64985;46.364;17.008;2024-03-23T05:31:55;8.60;99.90
76203;DHT22;64985;46.364;17.008;2024-03-23T05:34:58;8.70;99.90
76203;DHT22;64985;46.364;17.008;2024-03-23T05:37:59;8.80;99.90
76203;DHT22;64985;46.364;17.008;2024-03-23T05:41:01;8.80;99.90
76203;DHT22;64985;46.364;17.008;2024-03-23T05:44:03;8.70;99.90
76203;DHT22;64985;46.364;17.008;2024-03-23T05:47:04;8.80;99.90
76203;DHT22;64985;46.364;17.008;2024-03-23T05:50:06;8.80;99.90
76203;DHT22;64985;46.364;17.008;2024-03-23T05:53:07;8.80;99.90
76203;DHT22;64985;46.364;17.008;2024-03-23T05:56:08;8.80;99.90
76203;DHT22;64985;46.364;17.008;2024-03-23T05:59:10;8.80;99.90
76203;DHT22;64985;46.364;17.008;2024-03-23T06:02:11;8.70;99.90
76203;DHT22;64985;46.364;17.008;2024-03-23T06:05:12;8.80;99.90
76203;DHT22;64985;46.364;17.008;2024-03-23T06:08:14;8.80;99.90
76203;DHT22;64985;46.364;17.008;2024-03-23T06:11:16;8.90;99.90
76203;DHT22;64985;46.364;17.008;2024-03-23T06:14:17;9.00;99.90
76203;DHT22;64985;46.364;17.008;2024-03-23T06:17:21;9.10;99.90
76203;DHT22;64985;46.364;17.008;2024-03-23T06:20:22;9.30;99.90
76203;DHT22;64985;46.364;17.008;2024-03-23T06:23:23;9.50;99.90
76203;DHT22;64985;46.364;17.008;2024-03-23T06:26:25;9.60;99.90
76203;DHT22;64985;46.364;17.008;2024-03-23T06:29:26;9.70;99.90
76203;DHT22;64985;46.364;17.008;2024-03-23T06:32:28;9.90;99.90
76203;DHT22;64985;46.364;17.008;2024-03-23T06:35:32;10.10;99.90
76203;DHT22;64985;46.364;17.008;2024-03-23T06:38:33;10.20;99.90
76203;DHT22;64985;46.364;17.008;2024-03-23T06:41:35;10.30;99.90
76203;DHT22;64985;46.364;17.008;2024-03-23T06:44:36;10.60;99.90
76203;DHT22;64985;46.364;17.008;2024-03-23T06:47:37;10.80;99.90
76203;DHT22;64985;46.364;17.008;2024-03-23T06:50:39;11.00;99.90
76203;DHT22;64985;46.364;17.008;2024-03-23T06:53:40;11.20;99.90
76203;DHT22;64985;46.364;17.008;2024-03-23T06:56:41;11.40;99.90
76203;DHT22;64985;46.364;17.008;2024-03-23T06:59:43;11.60;99.90
76203;DHT22;64985;46.364;17.008;2024-03-23T07:02:44;11.90;99.90
76203;DHT22;64985;46.364;17.008;2024-03-23T07:05:45;12.10;99.90
76203;DHT22;64985;46.364;17.008;2024-03-23T07:08:47;12.40;99.90
76203;DHT22;64985;46.364;17.008;2024-03-23T07:11:48;12.70;99.90
76203;DHT22;64985;46.364;17.008;2024-03-23T07:14:50;13.00;99.90
76203;DHT22;64985;46.364;17.008;2024-03-23T07:17:51;13.30;98.00
76203;DHT22;64985;46.364;17.008;2024-03-23T07:20:56;13.20;98.90
76203;DHT22;64985;46.364;17.008;2024-03-23T07:23:57;13.00;96.90
76203;DHT22;64985;46.364;17.008;2024-03-23T07:26:58;12.80;95.90
76203;DHT22;64985;46.364;17.008;2024-03-23T07:30:00;12.90;97.60
76203;DHT22;64985;46.364;17.008;2024-03-23T07:33:02;13.10;95.90
76203;DHT22;64985;46.364;17.008;2024-03-23T07:36:04;13.60;94.60
76203;DHT22;64985;46.364;17.008;2024-03-23T07:39:05;14.00;92.30
76203;DHT22;64985;46.364;17.008;2024-03-23T07:42:06;14.60;92.60
76203;DHT22;64985;46.364;17.008;2024-03-23T07:45:08;14.70;91.10
76203;DHT22;64985;46.364;17.008;2024-03-23T07:48:10;15.20;87.80
76203;DHT22;64985;46.364;17.008;2024-03-23T07:51:22;16.00;84.60
76203;DHT22;64985;46.364;17.008;2024-03-23T07:54:23;16.20;78.10
76203;DHT22;64985;46.364;17.008;2024-03-23T07:57:25;16.60;75.00
76203;DHT22;64985;46.364;17.008;2024-03-23T08:00:26;17.10;72.00
76203;DHT22;64985;46.364;17.008;2024-03-23T08:03:27;17.40;72.50
76203;DHT22;64985;46.364;17.008;2024-03-23T08:06:29;17.90;71.00
76203;DHT22;64985;46.364;17.008;2024-03-23T08:09:30;16.80;69.10
76203;DHT22;64985;46.364;17.008;2024-03-23T08:12:31;16.40;71.40
76203;DHT22;64985;46.364;17.008;2024-03-23T08:15:32;16.40;69.90
76203;DHT22;64985;46.364;17.008;2024-03-23T08:18:37;16.20;70.20
76203;DHT22;64985;46.364;17.008;2024-03-23T08:21:38;16.00;68.40
76203;DHT22;64985;46.364;17.008;2024-03-23T08:24:39;16.00;66.90
76203;DHT22;64985;46.364;17.008;2024-03-23T08:27:40;15.90;70.30
76203;DHT22;64985;46.364;17.008;2024-03-23T08:30:42;15.90;67.80
76203;DHT22;64985;46.364;17.008;2024-03-23T08:33:43;16.00;69.30
76203;DHT22;64985;46.364;17.008;2024-03-23T08:36:45;16.20;68.90
76203;DHT22;64985;46.364;17.008;2024-03-23T08:39:46;16.00;69.80
76203;DHT22;64985;46.364;17.008;2024-03-23T08:42:47;16.00;68.70
76203;DHT22;64985;46.364;17.008;2024-03-23T08:45:48;15.90;69.20
76203;DHT22;64985;46.364;17.008;2024-03-23T08:48:50;16.10;70.00
76203;DHT22;64985;46.364;17.008;2024-03-23T08:51:53;16.00;70.50
76203;DHT22;64985;46.364;17.008;2024-03-23T08:54:55;16.00;69.60
76203;DHT22;64985;46.364;17.008;2024-03-23T08:57:57;15.90;68.00
76203;DHT22;64985;46.364;17.008;2024-03-23T09:01:09;16.20;67.90
76203;DHT22;64985;46.364;17.008;2024-03-23T09:04:11;16.70;68.20
76203;DHT22;64985;46.364;17.008;2024-03-23T09:07:12;17.20;67.10
76203;DHT22;64985;46.364;17.008;2024-03-23T09:10:13;17.80;66.80
76203;DHT22;64985;46.364;17.008;2024-03-23T09:13:14;17.70;63.90
76203;DHT22;64985;46.364;17.008;2024-03-23T09:16:17;17.30;64.30
76203;DHT22;64985;46.364;17.008;2024-03-23T09:19:18;17.60;63.80
76203;DHT22;64985;46.364;17.008;2024-03-23T09:22:19;17.90;62.90
76203;DHT22;64985;46.364;17.008;2024-03-23T09:25:20;18.30;62.30
76203;DHT22;64985;46.364;17.008;2024-03-23T09:28:22;18.60;60.60
76203;DHT22;64985;46.364;17.008;2024-03-23T09:31:23;18.00;60.40
76203;DHT22;64985;46.364;17.008;2024-03-23T09:34:24;17.60;65.60
76203;DHT22;64985;46.364;17.008;2024-03-23T09:37:26;17.60;62.40
76203;DHT22;64985;46.364;17.008;2024-03-23T09:40:27;17.80;62.90
76203;DHT22;64985;46.364;17.008;2024-03-23T09:43:28;18.20;63.10
76203;DHT22;64985;46.364;17.008;2024-03-23T09:46:30;18.30;61.90
76203;DHT22;64985;46.364;17.008;2024-03-23T09:49:35;18.50;61.70
76203;DHT22;64985;46.364;17.008;2024-03-23T09:52:39;18.80;61.60
76203;DHT22;64985;46.364;17.008;2024-03-23T09:55:42;18.60;59.80
76203;DHT22;64985;46.364;17.008;2024-03-23T09:58:44;18.60;60.60
76203;DHT22;64985;46.364;17.008;2024-03-23T10:01:45;18.40;58.60
76203;DHT22;64985;46.364;17.008;2024-03-23T10:04:47;18.40;59.70
76203;DHT22;64985;46.364;17.008;2024-03-23T10:07:50;18.60;61.10
76203;DHT22;64985;46.364;17.008;2024-03-23T10:10:51;18.50;58.80
76203;DHT22;64985;46.364;17.008;2024-03-23T10:13:52;18.10;60.10
76203;DHT22;64985;46.364;17.008;2024-03-23T10:17:15;18.30;58.70
76203;DHT22;64985;46.364;17.008;2024-03-23T10:20:22;18.40;60.30
76203;DHT22;64985;46.364;17.008;2024-03-23T10:23:24;18.60;58.90
76203;DHT22;64985;46.364;17.008;2024-03-23T10:26:25;18.40;58.70
76203;DHT22;64985;46.364;17.008;2024-03-23T10:29:26;18.80;61.10
76203;DHT22;64985;46.364;17.008;2024-03-23T10:32:30;19.20;58.10
76203;DHT22;64985;46.364;17.008;2024-03-23T10:35:32;19.20;54.50
76203;DHT22;64985;46.364;17.008;2024-03-23T10:38:34;19.10;57.20
76203;DHT22;64985;46.364;17.008;2024-03-23T10:41:35;19.20;57.60
76203;DHT22;64985;46.364;17.008;2024-03-23T10:44:37;19.90;54.40
76203;DHT22;64985;46.364;17.008;2024-03-23T10:47:39;20.40;53.60
76203;DHT22;64985;46.364;17.008;2024-03-23T10:50:40;20.40;51.70
76203;DHT22;64985;46.364;17.008;2024-03-23T10:53:41;20.10;54.00
76203;DHT22;64985;46.364;17.008;2024-03-23T10:56:44;20.00;54.10
76203;DHT22;64985;46.364;17.008;2024-03-23T10:59:46;19.70;53.80
76203;DHT22;64985;46.364;17.008;2024-03-23T11:02:48;19.80;52.40
76203;DHT22;64985;46.364;17.008;2024-03-23T11:05:50;20.40;53.20
76203;DHT22;64985;46.364;17.008;2024-03-23T11:08:51;20.60;51.90
76203;DHT22;64985;46.364;17.008;2024-03-23T11:11:52;20.80;50.90
76203;DHT22;64985;46.364;17.008;2024-03-23T11:15:04;20.30;48.20
76203;DHT22;64985;46.364;17.008;2024-03-23T11:18:07;20.20;51.00
76203;DHT22;64985;46.364;17.008;2024-03-23T11:24:51;20.80;49.30
76203;DHT22;64985;46.364;17.008;2024-03-23T11:27:55;20.70;49.20
76203;DHT22;64985;46.364;17.008;2024-03-23T11:30:57;20.20;46.60
76203;DHT22;64985;46.364;17.008;2024-03-23T11:34:05;19.80;47.70
76203;DHT22;64985;46.364;17.008;2024-03-23T11:37:07;19.60;45.80
76203;DHT22;64985;46.364;17.008;2024-03-23T11:40:18;19.50;46.40
76203;DHT22;64985;46.364;17.008;2024-03-23T11:43:20;19.50;48.40
76203;DHT22;64985;46.364;17.008;2024-03-23T11:46:23;19.60;49.30
76203;DHT22;64985;46.364;17.008;2024-03-23T11:49:26;19.40;50.00
76203;DHT22;64985;46.364;17.008;2024-03-23T11:52:27;19.30;49.10
76203;DHT22;64985;46.364;17.008;2024-03-23T11:55:28;19.10;51.40
76203;DHT22;64985;46.364;17.008;2024-03-23T11:58:29;18.90;51.20
76203;DHT22;64985;46.364;17.008;2024-03-23T12:01:31;19.10;51.40
76203;DHT22;64985;46.364;17.008;2024-03-23T12:04:32;19.20;50.10
76203;DHT22;64985;46.364;17.008;2024-03-23T12:07:34;19.10;51.90
76203;DHT22;64985;46.364;17.008;2024-03-23T12:10:35;19.10;48.90
76203;DHT22;64985;46.364;17.008;2024-03-23T12:13:37;19.20;49.00
76203;DHT22;64985;46.364;17.008;2024-03-23T12:16:38;19.10;48.90
76203;DHT22;64985;46.364;17.008;2024-03-23T12:19:41;19.00;49.30
76203;DHT22;64985;46.364;17.008;2024-03-23T12:22:44;19.20;49.20
76203;DHT22;64985;46.364;17.008;2024-03-23T12:25:48;19.10;49.00
76203;DHT22;64985;46.364;17.008;2024-03-23T12:28:50;19.10;47.90
76203;DHT22;64985;46.364;17.008;2024-03-23T12:31:51;19.00;49.50
76203;DHT22;64985;46.364;17.008;2024-03-23T12:34:52;19.00;50.70
76203;DHT22;64985;46.364;17.008;2024-03-23T12:37:53;19.00;51.30
76203;DHT22;64985;46.364;17.008;2024-03-23T12:40:55;19.20;47.60
76203;DHT22;64985;46.364;17.008;2024-03-23T12:43:56;19.20;48.30
76203;DHT22;64985;46.364;17.008;2024-03-23T12:46:57;19.40;47.90
76203;DHT22;64985;46.364;17.008;2024-03-23T12:49:59;19.70;49.20
76203;DHT22;64985;46.364;17.008;2024-03-23T12:53:00;19.90;47.40
76203;DHT22;64985;46.364;17.008;2024-03-23T12:56:01;20.10;47.80
76203;DHT22;64985;46.364;17.008;2024-03-23T12:59:02;19.60;46.50
76203;DHT22;64985;46.364;17.008;2024-03-23T13:02:04;19.50;48.50
76203;DHT22;64985;46.364;17.008;2024-03-23T13:05:06;19.90;45.20
76203;DHT22;64985;46.364;17.008;2024-03-23T13:08:09;20.50;47.50
76203;DHT22;64985;46.364;17.008;2024-03-23T13:11:10;20.50;47.00
76203;DHT22;64985;46.364;17.008;2024-03-23T13:14:11;20.80;46.10
76203;DHT22;64985;46.364;17.008;2024-03-23T13:17:15;20.60;48.40
76203;DHT22;64985;46.364;17.008;2024-03-23T13:20:38;19.90;45.90
76203;DHT22;64985;46.364;17.008;2024-03-23T13:23:39;19.60;46.20
76203;DHT22;64985;46.364;17.008;2024-03-23T13:26:43;19.50;45.70
76203;DHT22;64985;46.364;17.008;2024-03-23T13:29:44;19.60;47.60
76203;DHT22;64985;46.364;17.008;2024-03-23T13:32:47;19.50;47.20
76203;DHT22;64985;46.364;17.008;2024-03-23T13:35:50;19.40;46.60
76203;DHT22;64985;46.364;17.008;2024-03-23T13:38:51;19.40;47.70
76203;DHT22;64985;46.364;17.008;2024-03-23T13:41:53;19.40;47.40
76203;DHT22;64985;46.364;17.008;2024-03-23T13:44:55;19.30;47.20
76203;DHT22;64985;46.364;17.008;2024-03-23T13:47:57;19.30;48.00
76203;DHT22;64985;46.364;17.008;2024-03-23T13:51:03;19.30;47.50
76203;DHT22;64985;46.364;17.008;2024-03-23T13:54:04;19.40;46.30
76203;DHT22;64985;46.364;17.008;2024-03-23T13:57:06;19.50;48.30
76203;DHT22;64985;46.364;17.008;2024-03-23T14:00:08;19.90;47.90
76203;DHT22;64985;46.364;17.008;2024-03-23T14:03:10;20.00;47.30
76203;DHT22;64985;46.364;17.008;2024-03-23T14:06:11;20.10;48.00
76203;DHT22;64985;46.364;17.008;2024-03-23T14:09:12;20.20;47.80
76203;DHT22;64985;46.364;17.008;2024-03-23T14:12:15;20.60;47.90
76203;DHT22;64985;46.364;17.008;2024-03-23T14:15:16;21.20;49.20
76203;DHT22;64985;46.364;17.008;2024-03-23T14:18:19;21.20;46.30
76203;DHT22;64985;46.364;17.008;2024-03-23T14:21:20;21.60;46.40
76203;DHT22;64985;46.364;17.008;2024-03-23T14:24:22;22.10;45.40
76203;DHT22;64985;46.364;17.008;2024-03-23T14:27:23;22.20;46.80
76203;DHT22;64985;46.364;17.008;2024-03-23T14:30:24;21.90;41.10
76203;DHT22;64985;46.364;17.008;2024-03-23T14:33:25;21.90;42.20
76203;DHT22;64985;46.364;17.008;2024-03-23T14:36:26;22.20;40.60
76203;DHT22;64985;46.364;17.008;2024-03-23T14:39:28;22.30;41.50
76203;DHT22;64985;46.364;17.008;2024-03-23T14:42:31;22.80;41.80
76203;DHT22;64985;46.364;17.008;2024-03-23T14:45:33;22.90;43.60
76203;DHT22;64985;46.364;17.008;2024-03-23T14:48:34;22.50;43.30
76203;DHT22;64985;46.364;17.008;2024-03-23T14:51:36;21.70;43.10
76203;DHT22;64985;46.364;17.008;2024-03-23T14:54:37;21.00;44.90
76203;DHT22;64985;46.364;17.008;2024-03-23T14:57:38;20.40;45.50
76203;DHT22;64985;46.364;17.008;2024-03-23T15:00:40;20.20;45.50
76203;DHT22;64985;46.364;17.008;2024-03-23T15:03:41;20.20;46.80
76203;DHT22;64985;46.364;17.008;2024-03-23T15:06:44;20.50;45.90
76203;DHT22;64985;46.364;17.008;2024-03-23T15:09:47;20.70;44.00
76203;DHT22;64985;46.364;17.008;2024-03-23T15:12:48;21.40;45.40
76203;DHT22;64985;46.364;17.008;2024-03-23T15:15:50;21.00;43.90
76203;DHT22;64985;46.364;17.008;2024-03-23T15:18:53;20.90;44.30
76203;DHT22;64985;46.364;17.008;2024-03-23T15:21:54;20.60;45.00
76203;DHT22;64985;46.364;17.008;2024-03-23T15:24:55;20.30;45.20
76203;DHT22;64985;46.364;17.008;2024-03-23T15:27:56;19.90;45.60
76203;DHT22;64985;46.364;17.008;2024-03-23T15:30:59;19.70;46.00
76203;DHT22;64985;46.364;17.008;2024-03-23T15:34:00;19.80;46.90
76203;DHT22;64985;46.364;17.008;2024-03-23T15:37:01;19.70;46.60
76203;DHT22;64985;46.364;17.008;2024-03-23T15:40:03;19.60;47.10
76203;DHT22;64985;46.364;17.008;2024-03-23T15:43:05;19.30;48.40
76203;DHT22;64985;46.364;17.008;2024-03-23T15:46:06;19.00;48.80
76203;DHT22;64985;46.364;17.008;2024-03-23T15:49:09;18.90;49.80
76203;DHT22;64985;46.364;17.008;2024-03-23T15:52:10;18.70;50.20
76203;DHT22;64985;46.364;17.008;2024-03-23T15:55:11;18.60;50.50
76203;DHT22;64985;46.364;17.008;2024-03-23T15:58:13;18.50;50.80
76203;DHT22;64985;46.364;17.008;2024-03-23T16:01:17;18.50;50.50
76203;DHT22;64985;46.364;17.008;2024-03-23T16:04:19;18.30;51.40
76203;DHT22;64985;46.364;17.008;2024-03-23T16:07:20;18.30;50.70
76203;DHT22;64985;46.364;17.008;2024-03-23T16:10:21;18.20;52.00
76203;DHT22;64985;46.364;17.008;2024-03-23T16:13:23;18.10;52.20
76203;DHT22;64985;46.364;17.008;2024-03-23T16:16:24;18.10;52.00
76203;DHT22;64985;46.364;17.008;2024-03-23T16:19:25;18.00;52.70
76203;DHT22;64985;46.364;17.008;2024-03-23T16:22:26;17.90;52.10
76203;DHT22;64985;46.364;17.008;2024-03-23T16:25:28;17.80;52.00
76203;DHT22;64985;46.364;17.008;2024-03-23T16:31:31;17.70;51.90
76203;DHT22;64985;46.364;17.008;2024-03-23T16:34:32;17.50;52.40
76203;DHT22;64985;46.364;17.008;2024-03-23T16:37:34;17.50;51.90
76203;DHT22;64985;46.364;17.008;2024-03-23T16:40:35;17.40;53.20
76203;DHT22;64985;46.364;17.008;2024-03-23T16:43:37;17.20;52.80
76203;DHT22;64985;46.364;17.008;2024-03-23T16:46:40;17.10;54.00
76203;DHT22;64985;46.364;17.008;2024-03-23T16:49:43;17.00;54.90
76203;DHT22;64985;46.364;17.008;2024-03-23T16:52:44;16.90;54.50
76203;DHT22;64985;46.364;17.008;2024-03-23T16:55:45;16.80;55.30
76203;DHT22;64985;46.364;17.008;2024-03-23T16:58:46;16.70;54.40
76203;DHT22;64985;46.364;17.008;2024-03-23T17:01:50;16.70;55.10
76203;DHT22;64985;46.364;17.008;2024-03-23T17:04:51;16.70;55.50
76203;DHT22;64985;46.364;17.008;2024-03-23T17:07:53;16.70;55.00
76203;DHT22;64985;46.364;17.008;2024-03-23T17:10:58;16.70;55.50
76203;DHT22;64985;46.364;17.008;2024-03-23T17:14:00;16.60;54.60
76203;DHT22;64985;46.364;17.008;2024-03-23T17:17:01;16.60;55.70
76203;DHT22;64985;46.364;17.008;2024-03-23T17:20:03;16.40;58.10
76203;DHT22;64985;46.364;17.008;2024-03-23T17:23:06;16.20;58.20
76203;DHT22;64985;46.364;17.008;2024-03-23T17:26:07;16.00;59.70
76203;DHT22;64985;46.364;17.008;2024-03-23T17:29:08;15.90;59.60
76203;DHT22;64985;46.364;17.008;2024-03-23T17:32:09;15.90;60.30
76203;DHT22;64985;46.364;17.008;2024-03-23T17:35:11;15.80;60.10
76203;DHT22;64985;46.364;17.008;2024-03-23T17:38:12;16.10;58.30
76203;DHT22;64985;46.364;17.008;2024-03-23T17:41:13;16.20;58.00
76203;DHT22;64985;46.364;17.008;2024-03-23T17:44:15;16.30;58.70
76203;DHT22;64985;46.364;17.008;2024-03-23T17:47:16;16.30;58.80
76203;DHT22;64985;46.364;17.008;2024-03-23T17:50:18;16.40;58.50
76203;DHT22;64985;46.364;17.008;2024-03-23T17:53:19;16.30;57.30
76203;DHT22;64985;46.364;17.008;2024-03-23T17:56:21;16.30;57.60
76203;DHT22;64985;46.364;17.008;2024-03-23T17:59:22;16.30;56.90
76203;DHT22;64985;46.364;17.008;2024-03-23T18:02:23;16.20;63.70
76203;DHT22;64985;46.364;17.008;2024-03-23T18:05:24;15.80;64.30
76203;DHT22;64985;46.364;17.008;2024-03-23T18:08:26;15.40;61.00
76203;DHT22;64985;46.364;17.008;2024-03-23T18:11:27;14.40;60.10
76203;DHT22;64985;46.364;17.008;2024-03-23T18:14:29;13.40;61.80
76203;DHT22;64985;46.364;17.008;2024-03-23T18:17:30;12.60;65.30
76203;DHT22;64985;46.364;17.008;2024-03-23T18:20:32;12.10;82.30
76203;DHT22;64985;46.364;17.008;2024-03-23T18:23:33;11.30;96.80
76203;DHT22;64985;46.364;17.008;2024-03-23T18:26:35;10.70;99.90
76203;DHT22;64985;46.364;17.008;2024-03-23T18:29:36;10.20;99.90
76203;DHT22;64985;46.364;17.008;2024-03-23T18:32:37;9.90;99.90
76203;DHT22;64985;46.364;17.008;2024-03-23T18:35:39;9.60;99.90
76203;DHT22;64985;46.364;17.008;2024-03-23T18:38:40;9.30;99.90
76203;DHT22;64985;46.364;17.008;2024-03-23T18:41:41;9.00;99.90
76203;DHT22;64985;46.364;17.008;2024-03-23T18:44:43;8.70;99.90
76203;DHT22;64985;46.364;17.008;2024-03-23T18:47:44;8.50;99.90
76203;DHT22;64985;46.364;17.008;2024-03-23T18:50:45;8.40;99.90
76203;DHT22;64985;46.364;17.008;2024-03-23T18:53:47;8.20;99.90
76203;DHT22;64985;46.364;17.008;2024-03-23T18:56:48;8.10;99.90
76203;DHT22;64985;46.364;17.008;2024-03-23T18:59:50;7.90;99.90
76203;DHT22;64985;46.364;17.008;2024-03-23T19:02:52;7.70;99.90
76203;DHT22;64985;46.364;17.008;2024-03-23T19:05:58;7.60;99.90
76203;DHT22;64985;46.364;17.008;2024-03-23T19:08:59;7.50;99.90
76203;DHT22;64985;46.364;17.008;2024-03-23T19:12:00;7.40;99.90
76203;DHT22;64985;46.364;17.008;2024-03-23T19:15:01;7.30;99.90
76203;DHT22;64985;46.364;17.008;2024-03-23T19:18:05;7.20;99.90
76203;DHT22;64985;46.364;17.008;2024-03-23T19:21:07;7.10;99.90
76203;DHT22;64985;46.364;17.008;2024-03-23T19:24:09;7.10;99.90
76203;DHT22;64985;46.364;17.008;2024-03-23T19:27:10;7.00;99.90
76203;DHT22;64985;46.364;17.008;2024-03-23T19:30:11;7.00;99.90
76203;DHT22;64985;46.364;17.008;2024-03-23T19:33:13;6.80;99.90
76203;DHT22;64985;46.364;17.008;2024-03-23T19:36:15;6.80;99.90
76203;DHT22;64985;46.364;17.008;2024-03-23T19:39:17;6.70;99.90
76203;DHT22;64985;46.364;17.008;2024-03-23T19:42:18;6.70;99.90
76203;DHT22;64985;46.364;17.008;2024-03-23T19:45:19;6.60;99.90
76203;DHT22;64985;46.364;17.008;2024-03-23T19:48:21;6.60;99.90
76203;DHT22;64985;46.364;17.008;2024-03-23T19:51:23;6.60;99.90
76203;DHT22;64985;46.364;17.008;2024-03-23T19:54:24;6.60;99.90